createdAt,value
2017-12-01T00:02:15.519Z,41.67
2017-12-01T00:04:44.066Z,40.50
2017-12-01T00:07:11.893Z,36.45
2017-12-01T00:09:39.634Z,44.92
2017-12-01T00:12:07.433Z,39.97
2017-12-01T00:14:35.230Z,35.35
2017-12-01T00:17:03.004Z,45.67
2017-12-01T00:19:31.510Z,46.40
2017-12-01T00:21:59.305Z,46.37
2017-12-01T00:24:27.050Z,42.95
2017-12-01T00:26:54.797Z,46.15
2017-12-01T00:29:22.601Z,46.17
2017-12-01T00:31:50.350Z,44.38
2017-12-01T00:34:18.146Z,40.42
2017-12-01T00:36:45.959Z,45.60
2017-12-01T00:39:13.719Z,40.80
2017-12-01T00:41:41.472Z,43.50
2017-12-01T00:44:09.275Z,40.70
2017-12-01T00:46:37.043Z,40.08
2017-12-01T00:49:04.792Z,40.15
2017-12-01T00:51:32.626Z,40.83
2017-12-01T00:54:00.374Z,35.10
2017-12-01T00:56:28.122Z,36.60
2017-12-01T00:58:56.726Z,35.38
2017-12-01T01:01:24.501Z,37.80
2017-12-01T01:03:52.271Z,34.20
2017-12-01T01:06:20.077Z,39.20
2017-12-01T01:08:48.599Z,36.83
2017-12-01T01:11:16.374Z,41.67
2017-12-01T01:13:44.209Z,41.03
2017-12-01T01:16:11.958Z,34.00
2017-12-01T01:18:40.516Z,38.80
2017-12-01T01:21:08.335Z,29.17
2017-12-01T01:23:36.099Z,32.65
2017-12-01T01:26:03.838Z,34.17
2017-12-01T01:28:31.653Z,39.90
2017-12-01T01:30:59.426Z,30.92
2017-12-01T01:33:27.181Z,38.65
2017-12-01T01:35:54.982Z,31.48
2017-12-01T01:38:22.735Z,33.50
2017-12-01T01:40:51.303Z,38.75
2017-12-01T01:43:19.881Z,35.15
2017-12-01T01:45:48.394Z,39.03
2017-12-01T01:48:16.155Z,31.40
2017-12-01T01:50:43.980Z,32.70
2017-12-01T01:53:11.739Z,30.30
2017-12-01T01:55:39.499Z,29.37
2017-12-01T01:58:07.327Z,33.58
2017-12-01T02:00:35.083Z,32.72
2017-12-01T02:03:02.842Z,34.40
2017-12-01T02:05:30.686Z,33.55
2017-12-01T02:07:58.502Z,33.85
2017-12-01T02:10:26.323Z,24.23
2017-12-01T02:12:54.259Z,31.35
2017-12-01T02:15:22.783Z,30.48
2017-12-01T02:17:50.543Z,31.33
2017-12-01T02:20:18.361Z,35.20
2017-12-01T02:22:46.881Z,36.10
2017-12-01T02:25:14.701Z,34.05
2017-12-01T02:27:43.290Z,31.35
2017-12-01T02:30:11.814Z,31.08
2017-12-01T02:32:39.601Z,29.98
2017-12-01T02:35:07.459Z,28.10
2017-12-01T02:37:35.249Z,33.15
2017-12-01T02:40:03.782Z,29.48
2017-12-01T02:42:31.611Z,30.40
2017-12-01T02:44:59.439Z,32.13
2017-12-01T02:47:27.206Z,30.62
2017-12-01T02:49:55.787Z,28.55
2017-12-01T02:52:23.547Z,33.88
2017-12-01T02:54:51.986Z,28.48
2017-12-01T02:57:19.809Z,29.83
2017-12-01T02:59:48.335Z,31.15
2017-12-01T03:02:16.086Z,28.33
2017-12-01T03:04:43.975Z,29.40
2017-12-01T03:07:11.730Z,28.12
2017-12-01T03:09:39.493Z,33.63
2017-12-01T03:12:07.314Z,31.02
2017-12-01T03:14:35.066Z,29.73
2017-12-01T03:17:02.828Z,36.00
2017-12-01T03:19:30.645Z,29.63
2017-12-01T03:21:58.402Z,35.88
2017-12-01T03:24:26.163Z,34.53
2017-12-01T03:26:53.981Z,32.92
2017-12-01T03:29:21.737Z,35.05
2017-12-01T03:31:49.493Z,31.10
2017-12-01T03:34:17.314Z,33.95
2017-12-01T03:36:45.075Z,31.40
2017-12-01T03:39:12.843Z,32.70
2017-12-01T03:41:40.729Z,39.47
2017-12-01T03:44:09.256Z,31.30
2017-12-01T03:46:37.014Z,31.08
2017-12-01T03:49:04.839Z,34.72
2017-12-01T03:51:33.363Z,29.33
2017-12-01T03:54:01.129Z,34.60
2017-12-01T03:56:29.029Z,38.42
2017-12-01T03:58:57.566Z,33.22
2017-12-01T04:01:25.322Z,35.25
2017-12-01T04:03:53.134Z,33.63
2017-12-01T04:06:20.900Z,34.08
2017-12-01T04:08:48.654Z,37.65
2017-12-01T04:11:16.474Z,34.08
2017-12-01T04:13:44.242Z,37.08
2017-12-01T04:16:12.006Z,33.10
2017-12-01T04:18:39.826Z,37.05
2017-12-01T04:21:08.350Z,32.97
2017-12-01T04:23:36.114Z,31.25
2017-12-01T04:26:03.946Z,38.15
2017-12-01T04:28:31.697Z,35.47
2017-12-01T04:31:00.230Z,38.53
2017-12-01T04:33:28.049Z,33.92
2017-12-01T04:35:55.811Z,33.10
2017-12-01T04:38:23.567Z,31.67
2017-12-01T04:40:51.400Z,41.55
2017-12-01T04:43:19.155Z,35.35
2017-12-01T04:45:46.909Z,34.05
2017-12-01T04:48:14.730Z,37.85
2017-12-01T04:50:42.498Z,33.92
2017-12-01T04:53:10.250Z,32.50
2017-12-01T04:55:38.082Z,32.45
2017-12-01T04:58:06.602Z,35.83
2017-12-01T05:00:34.492Z,35.75
2017-12-01T05:03:02.314Z,31.73
2017-12-01T05:05:30.088Z,30.45
2017-12-01T05:07:57.857Z,33.22
2017-12-01T05:10:25.681Z,27.30
2017-12-01T05:12:54.200Z,27.85
2017-12-01T05:15:21.976Z,30.23
2017-12-01T05:17:50.594Z,27.27
2017-12-01T05:20:18.351Z,33.28
2017-12-01T05:22:46.111Z,26.80
2017-12-01T05:25:13.937Z,30.08
2017-12-01T05:27:41.721Z,32.80
2017-12-01T05:30:09.480Z,33.75
2017-12-01T05:32:37.350Z,34.47
2017-12-01T05:35:05.108Z,32.38
2017-12-01T05:37:32.870Z,38.65
2017-12-01T05:40:00.687Z,31.15
2017-12-01T05:42:28.459Z,34.80
2017-12-01T05:44:56.222Z,36.03
2017-12-01T05:47:24.038Z,38.92
2017-12-01T05:49:51.794Z,33.97
2017-12-01T05:52:19.554Z,40.45
2017-12-01T05:54:47.413Z,38.88
2017-12-01T05:57:15.178Z,38.10
2017-12-01T05:59:42.939Z,38.47
2017-12-01T06:02:10.895Z,43.10
2017-12-01T06:04:38.655Z,40.85
2017-12-01T06:07:06.414Z,39.08
2017-12-01T06:09:34.224Z,36.13
2017-12-01T06:12:02.058Z,37.08
2017-12-01T06:14:30.602Z,35.90
2017-12-01T06:16:58.414Z,31.80
2017-12-01T06:19:26.954Z,33.55
2017-12-01T06:21:54.742Z,35.30
2017-12-01T06:24:22.557Z,36.83
2017-12-01T06:26:50.321Z,35.40
2017-12-01T06:29:18.071Z,39.33
2017-12-01T06:31:45.882Z,39.05
2017-12-01T06:34:13.634Z,36.67
2017-12-01T06:36:41.391Z,43.58
2017-12-01T06:39:09.209Z,33.45
2017-12-01T06:41:36.984Z,35.10
2017-12-01T06:44:04.747Z,33.53
2017-12-01T06:46:32.563Z,36.53
2017-12-01T06:49:00.321Z,32.45
2017-12-01T06:51:28.087Z,36.00
2017-12-01T06:53:55.906Z,31.15
2017-12-01T06:56:23.649Z,30.55
2017-12-01T06:58:51.402Z,31.12
2017-12-01T07:01:19.979Z,31.17
2017-12-01T07:03:48.499Z,37.85
2017-12-01T07:06:16.257Z,31.90
2017-12-01T07:08:44.102Z,33.75
2017-12-01T07:11:11.852Z,32.13
2017-12-01T07:13:39.622Z,36.38
2017-12-01T07:16:07.439Z,37.15
2017-12-01T07:18:35.187Z,37.25
2017-12-01T07:21:03.698Z,36.10
2017-12-01T07:23:32.265Z,35.60
2017-12-01T07:26:05.838Z,38.03
2017-12-01T07:28:33.646Z,39.28
2017-12-01T07:31:02.153Z,38.60
2017-12-01T07:33:29.902Z,35.70
2017-12-01T07:35:57.705Z,39.85
2017-12-01T07:38:25.472Z,36.22
2017-12-01T07:40:53.996Z,31.25
2017-12-01T07:43:22.582Z,40.78
2017-12-01T07:45:51.138Z,34.33
2017-12-01T07:48:18.898Z,31.25
2017-12-01T07:50:46.770Z,27.33
2017-12-01T07:53:15.297Z,27.40
2017-12-01T07:55:43.069Z,26.83
2017-12-01T07:58:10.881Z,26.83
2017-12-01T08:00:39.403Z,26.27
2017-12-01T08:03:07.161Z,29.37
2017-12-01T08:05:34.989Z,26.17
2017-12-01T08:08:03.510Z,23.33
2017-12-01T08:10:31.266Z,23.25
2017-12-01T08:12:59.088Z,28.45
2017-12-01T08:15:27.614Z,25.00
2017-12-01T08:31:22.151Z,24.85
2017-12-01T08:33:49.894Z,27.35
2017-12-01T08:36:18.406Z,30.25
2017-12-01T08:38:46.202Z,25.08
2017-12-01T08:41:13.950Z,23.17
2017-12-01T08:43:41.697Z,26.65
2017-12-01T08:46:09.498Z,26.12
2017-12-01T08:48:37.269Z,23.23
2017-12-01T08:51:05.022Z,23.80
2017-12-01T08:53:32.833Z,28.40
2017-12-01T08:56:00.594Z,20.85
2017-12-01T08:58:28.334Z,22.80
2017-12-01T09:00:56.898Z,25.73
2017-12-01T09:03:24.660Z,19.92
2017-12-01T09:05:53.171Z,19.55
2017-12-01T09:08:20.970Z,21.23
2017-12-01T09:10:48.718Z,20.40
2017-12-01T09:13:16.478Z,22.50
2017-12-01T09:15:44.290Z,21.00
2017-12-01T09:18:12.806Z,19.42
2017-12-01T09:20:40.569Z,17.08
2017-12-01T09:23:08.367Z,17.12
2017-12-01T09:25:36.111Z,21.45
2017-12-01T09:28:03.867Z,17.87
2017-12-01T09:30:31.668Z,22.27
2017-12-01T09:32:59.410Z,19.08
2017-12-01T09:35:27.939Z,21.50
2017-12-01T09:37:55.734Z,21.05
2017-12-01T09:40:23.494Z,22.60
2017-12-01T09:42:51.258Z,18.10
2017-12-01T09:45:19.086Z,19.92
2017-12-01T09:47:46.830Z,18.10
2017-12-01T09:50:15.349Z,22.30
2017-12-01T09:52:43.179Z,17.25
2017-12-01T09:55:11.691Z,17.35
2017-12-01T09:57:39.463Z,16.50
2017-12-01T10:00:07.299Z,26.02
2017-12-01T10:02:35.064Z,19.92
2017-12-01T10:05:02.811Z,21.98
2017-12-01T10:07:31.378Z,24.80
2017-12-01T10:09:59.125Z,25.12
2017-12-01T10:12:26.871Z,26.65
2017-12-01T10:14:54.670Z,25.12
2017-12-01T10:17:22.454Z,24.20
2017-12-01T10:19:50.202Z,20.62
2017-12-01T10:22:18.765Z,21.30
2017-12-01T10:24:46.514Z,24.50
2017-12-01T10:27:14.295Z,29.10
2017-12-01T10:29:42.864Z,23.70
2017-12-01T10:32:10.715Z,27.33
2017-12-01T10:34:38.461Z,18.25
2017-12-01T10:37:06.270Z,23.45
2017-12-01T10:39:34.778Z,25.60
2017-12-01T10:42:02.522Z,20.88
2017-12-01T10:44:30.323Z,30.10
2017-12-01T10:46:58.082Z,22.23
2017-12-01T10:49:25.826Z,26.85
2017-12-01T10:51:53.635Z,22.52
2017-12-01T10:54:21.387Z,24.00
2017-12-01T10:56:49.130Z,24.00
2017-12-01T10:59:17.697Z,21.80
2017-12-01T11:01:45.450Z,23.30
2017-12-01T11:04:13.187Z,23.70
2017-12-01T11:06:41.750Z,20.95
2017-12-01T11:09:09.495Z,21.73
2017-12-01T11:11:37.258Z,19.77
2017-12-01T11:14:05.055Z,20.48
2017-12-01T11:16:32.806Z,21.95
2017-12-01T11:19:01.322Z,16.27
2017-12-01T11:21:29.132Z,21.85
2017-12-01T11:23:56.890Z,20.98
2017-12-01T11:26:24.633Z,18.60
2017-12-01T11:28:52.430Z,19.98
2017-12-01T11:31:20.938Z,20.05
2017-12-01T11:33:48.678Z,24.37
2017-12-01T11:36:17.241Z,22.87
2017-12-01T11:38:44.985Z,16.25
2017-12-01T11:41:12.726Z,20.48
2017-12-01T11:43:40.532Z,20.98
2017-12-01T11:46:09.039Z,22.52
2017-12-01T11:48:36.780Z,23.80
2017-12-01T11:51:05.348Z,22.52
2017-12-01T11:53:33.087Z,22.10
2017-12-01T11:56:01.659Z,23.62
2017-12-01T11:58:29.492Z,27.77
2017-12-01T12:00:57.297Z,24.05
2017-12-01T12:03:25.092Z,49.40
2017-12-01T12:05:53.677Z,28.35
2017-12-01T12:08:22.232Z,27.30
2017-12-01T12:10:50.039Z,28.35
2017-12-01T12:13:17.917Z,30.27
2017-12-01T12:15:45.763Z,22.85
2017-12-01T12:18:13.616Z,26.20
2017-12-01T12:20:41.473Z,26.30
2017-12-01T12:23:10.027Z,23.75
2017-12-01T12:25:37.881Z,25.90
2017-12-01T12:28:05.760Z,25.48
2017-12-01T12:30:33.591Z,24.50
2017-12-01T12:33:01.407Z,21.10
2017-12-01T12:35:30.035Z,25.60
2017-12-01T12:37:57.840Z,27.55
2017-12-01T12:40:26.425Z,29.42
2017-12-01T12:42:55.047Z,29.00
2017-12-01T12:45:22.836Z,31.75
2017-12-01T12:47:50.637Z,27.30
2017-12-01T12:50:19.269Z,30.23
2017-12-01T12:52:47.092Z,31.55
2017-12-01T12:55:14.904Z,28.00
2017-12-01T12:57:42.788Z,24.63
2017-12-01T13:00:10.622Z,24.63
2017-12-01T13:02:38.479Z,26.25
2017-12-01T13:05:06.354Z,23.58
2017-12-01T13:07:34.132Z,29.10
2017-12-01T13:10:01.916Z,27.83
2017-12-01T13:12:30.552Z,25.48
2017-12-01T13:14:58.368Z,25.62
2017-12-01T13:17:26.924Z,29.65
2017-12-01T13:19:54.807Z,26.48
2017-12-01T13:22:23.356Z,26.42
2017-12-01T13:24:51.932Z,29.87
2017-12-01T13:27:19.805Z,30.37
2017-12-01T13:29:47.632Z,32.75
2017-12-01T13:32:15.437Z,30.40
2017-12-01T13:34:43.303Z,30.00
2017-12-01T13:37:11.115Z,29.75
2017-12-01T13:39:38.934Z,31.87
2017-12-01T13:42:06.796Z,43.08
2017-12-01T13:44:34.612Z,39.35
2017-12-01T13:47:02.431Z,33.20
2017-12-01T13:49:30.292Z,37.28
2017-12-01T13:51:58.107Z,33.88
2017-12-01T13:54:25.905Z,32.05
2017-12-01T13:56:53.780Z,38.58
2017-12-01T13:59:21.542Z,30.42
2017-12-01T14:01:49.347Z,28.80
2017-12-01T14:04:17.180Z,27.45
2017-12-01T14:06:45.727Z,29.02
2017-12-01T14:09:13.471Z,28.87
2017-12-01T14:11:41.264Z,35.10
2017-12-01T14:14:08.995Z,33.75
2017-12-01T14:16:36.727Z,25.90
2017-12-01T14:19:04.535Z,30.20
2017-12-01T14:21:32.270Z,39.33
2017-12-01T14:24:00.009Z,33.63
2017-12-01T14:26:27.809Z,42.67
2017-12-01T14:28:55.545Z,35.45
2017-12-01T14:31:23.281Z,43.67
2017-12-01T14:33:51.844Z,39.55
2017-12-01T14:36:19.591Z,53.45
2017-12-01T14:38:47.348Z,45.28
2017-12-01T14:41:15.915Z,40.70
2017-12-01T14:43:43.651Z,41.78
2017-12-01T14:46:11.388Z,42.47
2017-12-01T14:48:39.947Z,44.38
2017-12-01T14:51:07.696Z,37.15
2017-12-01T14:53:35.441Z,35.85
2017-12-01T14:56:03.243Z,36.00
2017-12-01T14:58:31.753Z,40.40
2017-12-01T15:00:59.503Z,30.67
2017-12-01T15:03:27.312Z,38.72
2017-12-01T15:05:55.829Z,34.03
2017-12-01T15:08:24.340Z,41.72
2017-12-01T15:10:52.137Z,43.67
2017-12-01T15:13:19.875Z,38.50
2017-12-01T15:15:47.609Z,36.22
2017-12-01T15:18:15.451Z,39.45
2017-12-01T15:20:43.956Z,45.75
2017-12-01T15:23:11.694Z,41.60
2017-12-01T15:25:40.267Z,41.15
2017-12-01T15:28:08.009Z,41.40
2017-12-01T15:30:35.772Z,48.15
2017-12-01T15:33:03.581Z,43.42
2017-12-01T15:35:31.326Z,47.97
2017-12-01T15:37:59.125Z,43.45
2017-12-01T15:40:27.014Z,46.55
2017-12-01T15:42:54.795Z,43.22
2017-12-01T15:45:22.580Z,51.45
2017-12-01T15:47:51.203Z,47.13
2017-12-01T15:50:18.992Z,42.60
2017-12-01T15:52:46.780Z,66.10
2017-12-01T15:55:15.395Z,124.47
2017-12-01T15:57:43.188Z,70.15
2017-12-01T16:00:11.009Z,52.40
2017-12-01T16:02:38.924Z,50.00
2017-12-01T16:05:06.778Z,49.75
2017-12-01T16:07:34.580Z,48.03
2017-12-01T16:10:03.276Z,53.45
2017-12-01T16:12:31.901Z,41.67
2017-12-01T16:14:59.828Z,50.25
2017-12-01T16:17:27.736Z,40.70
2017-12-01T16:19:55.556Z,43.80
2017-12-01T16:22:23.371Z,49.33
2017-12-01T16:24:51.232Z,45.83
2017-12-01T16:27:19.839Z,43.67
2017-12-01T16:29:47.643Z,49.80
2017-12-01T16:32:15.512Z,45.92
2017-12-01T16:34:43.406Z,60.00
2017-12-01T16:37:12.025Z,47.45
2017-12-01T16:39:41.486Z,46.03
2017-12-01T16:42:10.679Z,45.15
2017-12-01T16:44:39.977Z,48.50
2017-12-01T16:47:08.354Z,52.22
2017-12-01T16:49:37.554Z,47.90
2017-12-01T16:52:05.808Z,51.45
2017-12-01T16:54:35.223Z,56.80
2017-12-01T16:57:04.543Z,56.30
2017-12-01T16:59:34.537Z,52.72
2017-12-01T17:02:04.451Z,71.43
2017-12-01T17:04:35.370Z,58.55
2017-12-01T17:07:06.949Z,51.30
2017-12-01T17:09:37.931Z,57.83
2017-12-01T17:12:09.376Z,57.25
2017-12-01T17:14:40.782Z,54.30
2017-12-01T17:17:12.157Z,51.88
2017-12-01T17:19:42.457Z,57.28
2017-12-01T17:22:13.502Z,64.32
2017-12-01T17:24:45.038Z,58.65
2017-12-01T17:27:13.924Z,80.00
2017-12-01T17:29:44.931Z,67.85
2017-12-01T17:32:16.250Z,66.78
2017-12-01T17:37:22.376Z,61.55
2017-12-01T17:39:54.059Z,69.50
2017-12-01T17:42:25.410Z,70.65
2017-12-01T17:44:56.952Z,66.22
2017-12-01T17:47:29.382Z,105.70
2017-12-01T17:50:00.958Z,89.18
2017-12-01T17:52:32.634Z,91.95
2017-12-01T17:55:12.838Z,83.35
2017-12-01T17:57:49.215Z,81.28
2017-12-01T18:00:20.468Z,77.65
2017-12-01T18:02:49.332Z,84.25
2017-12-01T18:05:20.305Z,76.25
2017-12-01T18:07:51.838Z,77.50
2017-12-01T18:10:23.404Z,84.45
2017-12-01T18:12:52.385Z,81.65
2017-12-01T18:15:24.442Z,80.80
2017-12-01T18:17:53.302Z,82.20
2017-12-01T18:20:24.714Z,76.00
2017-12-01T18:22:54.366Z,74.78
2017-12-01T18:25:25.557Z,83.00
2017-12-01T18:27:57.311Z,80.20
2017-12-01T18:30:28.856Z,78.12
2017-12-01T18:32:58.367Z,79.85
2017-12-01T18:35:30.820Z,84.75
2017-12-01T18:38:02.685Z,97.60
2017-12-01T18:40:34.437Z,82.97
2017-12-01T18:43:06.708Z,86.63
2017-12-01T18:45:38.277Z,69.57
2017-12-01T18:48:10.081Z,83.10
2017-12-01T18:50:41.734Z,94.18
2017-12-01T18:53:13.484Z,97.45
2017-12-01T18:55:45.110Z,88.40
2017-12-01T18:58:16.855Z,102.32
2017-12-01T19:00:48.614Z,99.50
2017-12-01T19:03:18.356Z,98.90
2017-12-01T19:05:49.796Z,81.05
2017-12-01T19:08:22.571Z,97.25
2017-12-01T19:10:51.390Z,88.32
2017-12-01T19:13:22.679Z,88.37
2017-12-01T19:15:55.197Z,88.80
2017-12-01T19:18:27.048Z,107.43
2017-12-01T19:20:57.365Z,96.53
2017-12-01T19:23:31.474Z,101.28
2017-12-01T19:26:03.321Z,95.07
2017-12-01T19:28:35.072Z,122.32
2017-12-01T19:31:03.997Z,93.45
2017-12-01T19:33:32.488Z,107.93
2017-12-01T19:36:03.927Z,101.97
2017-12-01T19:38:35.959Z,96.57
2017-12-01T19:41:05.598Z,99.15
2017-12-01T19:43:37.194Z,89.40
2017-12-01T19:46:09.158Z,95.38
2017-12-01T19:48:41.061Z,86.57
2017-12-01T19:51:12.924Z,95.35
2017-12-01T19:53:44.697Z,90.10
2017-12-01T19:56:17.161Z,88.32
2017-12-01T19:58:51.132Z,93.05
2017-12-01T20:01:23.124Z,85.68
2017-12-01T20:03:55.026Z,92.07
2017-12-01T20:06:26.912Z,95.20
2017-12-01T20:09:01.498Z,81.55
2017-12-01T20:11:34.210Z,83.45
2017-12-01T20:14:06.294Z,83.90
2017-12-01T20:16:38.956Z,95.80
2017-12-01T20:19:11.048Z,83.32
2017-12-01T20:21:42.827Z,94.20
2017-12-01T20:24:14.734Z,83.95
2017-12-01T20:26:44.359Z,104.72
2017-12-01T20:29:12.286Z,105.05
2017-12-01T20:31:40.074Z,110.65
2017-12-01T20:34:07.856Z,85.18
2017-12-01T20:36:36.462Z,77.50
2017-12-01T20:39:04.259Z,76.03
2017-12-01T20:41:32.032Z,85.55
2017-12-01T20:43:59.863Z,86.18
2017-12-01T20:46:27.635Z,87.78
2017-12-01T20:48:55.413Z,86.78
2017-12-01T20:51:23.242Z,104.95
2017-12-01T20:53:51.011Z,97.95
2017-12-01T20:56:18.801Z,113.97
2017-12-01T20:58:46.631Z,85.00
2017-12-01T21:01:14.407Z,108.05
2017-12-01T21:03:42.183Z,91.78
2017-12-01T21:06:10.011Z,123.20
2017-12-01T21:08:37.817Z,91.68
2017-12-01T21:11:05.599Z,92.70
2017-12-01T21:13:33.473Z,82.97
2017-12-01T21:16:02.019Z,74.60
2017-12-01T21:18:29.819Z,93.37
2017-12-01T21:20:58.516Z,91.15
2017-12-01T21:23:26.298Z,95.05
2017-12-01T21:25:54.070Z,83.00
2017-12-01T21:28:21.898Z,79.93
2017-12-01T21:30:50.439Z,82.43
2017-12-01T21:33:18.232Z,80.93
2017-12-01T21:35:46.826Z,75.07
2017-12-01T21:38:14.619Z,76.80
2017-12-01T21:40:42.994Z,79.75
2017-12-01T21:43:10.831Z,78.60
2017-12-01T21:45:38.630Z,74.03
2017-12-01T21:48:06.415Z,74.70
2017-12-01T21:50:34.244Z,68.20
2017-12-01T21:53:02.003Z,79.60
2017-12-01T21:55:29.789Z,65.65
2017-12-01T21:57:57.595Z,76.45
2017-12-01T22:00:26.108Z,64.00
2017-12-01T22:02:53.851Z,68.18
2017-12-01T22:05:21.663Z,73.65
2017-12-01T22:07:49.419Z,54.17
2017-12-01T22:10:17.167Z,61.30
2017-12-01T22:12:44.976Z,62.25
2017-12-01T22:15:13.515Z,60.42
2017-12-01T22:17:41.264Z,67.00
2017-12-01T22:20:09.062Z,63.47
2017-12-01T22:22:36.812Z,62.70
2017-12-01T22:25:04.564Z,62.13
2017-12-01T22:27:32.413Z,52.60
2017-12-01T22:30:00.160Z,51.78
2017-12-01T22:32:27.942Z,49.15
2017-12-01T22:34:55.793Z,54.80
2017-12-01T22:37:24.383Z,51.63
2017-12-01T22:39:52.152Z,53.60
2017-12-01T22:42:19.967Z,48.75
2017-12-01T22:44:48.480Z,53.78
2017-12-01T22:47:16.263Z,46.50
2017-12-01T22:49:44.119Z,65.68
2017-12-01T22:52:11.889Z,56.17
2017-12-01T22:54:39.708Z,53.05
2017-12-01T22:57:07.519Z,58.55
2017-12-01T22:59:35.262Z,57.40
2017-12-01T23:02:03.014Z,55.15
2017-12-01T23:04:30.819Z,49.85
2017-12-01T23:06:58.562Z,52.47
2017-12-01T23:09:26.935Z,49.90
2017-12-01T23:11:54.758Z,48.53
2017-12-01T23:14:22.506Z,46.15
2017-12-01T23:16:51.042Z,50.30
2017-12-01T23:19:19.637Z,54.97
2017-12-01T23:21:47.386Z,47.13
2017-12-01T23:24:16.747Z,42.72
2017-12-01T23:26:44.612Z,43.30
2017-12-01T23:29:12.412Z,48.25
2017-12-01T23:31:40.276Z,49.00
2017-12-01T23:34:09.036Z,44.08
2017-12-01T23:36:37.579Z,40.03
2017-12-01T23:39:06.102Z,42.72
2017-12-01T23:41:34.046Z,44.30
2017-12-01T23:44:01.839Z,43.05
2017-12-01T23:46:29.717Z,40.75
2017-12-01T23:48:57.713Z,41.53
2017-12-01T23:51:26.310Z,46.58
2017-12-01T23:53:54.991Z,38.55
2017-12-01T23:56:23.574Z,43.17
2017-12-01T23:58:51.337Z,41.72
